createdAt,value
2019-05-11T03:42:58.286Z,96451.17
2019-05-11T03:44:41.329Z,96453.13
2019-05-11T03:46:17.933Z,96451.17
2019-05-11T03:47:53.656Z,96455.55
2019-05-11T03:49:29.002Z,96459.00
2019-05-11T03:51:06.397Z,96461.97
2019-05-11T03:52:41.825Z,96459.84
2019-05-11T03:54:19.169Z,96456.52
2019-05-11T03:55:54.727Z,96460.51
2019-05-11T03:57:30.436Z,96454.34
2019-05-11T03:59:05.785Z,96457.95
2019-05-11T04:00:41.131Z,96456.92
2019-05-11T04:02:16.435Z,96451.75
2019-05-11T04:03:51.720Z,96453.31
2019-05-11T04:05:27.060Z,96449.06
2019-05-11T04:07:02.356Z,96446.17
2019-05-11T04:08:37.954Z,96448.10
2019-05-11T04:10:14.462Z,96448.20
2019-05-11T04:11:50.731Z,96445.65
2019-05-11T04:13:28.953Z,96450.13
2019-05-11T04:15:07.811Z,96453.16
2019-05-11T04:16:43.036Z,96453.59
2019-05-11T04:18:18.224Z,96450.00
2019-05-11T04:19:54.569Z,96446.95
2019-05-11T04:21:30.673Z,96451.20
2019-05-11T04:23:06.250Z,96455.61
2019-05-11T04:24:42.055Z,96443.69
2019-05-11T04:26:17.773Z,96448.11
2019-05-11T04:27:53.325Z,96451.43
2019-05-11T04:29:31.333Z,96446.75
2019-05-11T04:31:07.168Z,96448.80
2019-05-11T04:32:42.701Z,96444.39
2019-05-11T04:34:18.095Z,96443.46
2019-05-11T04:35:53.805Z,96436.78
2019-05-11T04:37:29.123Z,96425.07
2019-05-11T04:39:08.010Z,96423.11
2019-05-11T04:40:43.738Z,96423.38
2019-05-11T04:42:20.772Z,96420.06
2019-05-11T04:43:56.413Z,96412.66
2019-05-11T04:45:36.615Z,96413.59
2019-05-11T04:47:13.422Z,96410.27
2019-05-11T04:48:51.129Z,96395.73
2019-05-11T04:50:26.665Z,96388.00
2019-05-11T04:52:02.414Z,96385.61
2019-05-11T04:53:37.640Z,96386.91
2019-05-11T04:55:13.743Z,96382.69
2019-05-11T04:56:49.183Z,96382.03
2019-05-11T04:58:25.562Z,96371.34
2019-05-11T05:00:01.776Z,96371.64
2019-05-11T05:01:37.119Z,96366.56
2019-05-11T05:03:12.181Z,96363.08
2019-05-11T05:04:47.438Z,96359.59
2019-05-11T05:06:24.717Z,96364.33
2019-05-11T05:08:09.329Z,96356.96
2019-05-11T05:09:42.836Z,96353.34
2019-05-11T05:11:14.713Z,96345.94
2019-05-11T05:12:52.978Z,96343.09
2019-05-11T05:14:28.183Z,96346.73
2019-05-11T05:16:12.245Z,96351.84
2019-05-11T05:17:50.059Z,96342.65
2019-05-11T05:19:25.235Z,96337.27
2019-05-11T05:21:01.418Z,96330.89
2019-05-11T05:22:36.865Z,96327.52
2019-05-11T05:24:14.644Z,96329.97
2019-05-11T05:25:50.124Z,96334.16
2019-05-11T05:27:32.878Z,96338.23
2019-05-11T05:29:09.698Z,96329.04
2019-05-11T05:30:45.912Z,96326.16
2019-05-11T05:32:21.922Z,96312.87
2019-05-11T05:34:01.398Z,96315.27
2019-05-11T05:35:36.249Z,96311.02
2019-05-11T05:37:14.913Z,96313.42
2019-05-11T05:38:50.073Z,96312.69
2019-05-11T05:40:25.853Z,96311.84
2019-05-11T05:42:01.387Z,96316.20
2019-05-11T05:43:36.663Z,96314.56
2019-05-11T05:45:13.542Z,96313.72
2019-05-11T05:46:59.350Z,96308.14
2019-05-11T05:48:40.207Z,96310.70
2019-05-11T05:50:19.774Z,96307.86
2019-05-11T05:51:58.382Z,96309.28
2019-05-11T05:53:37.512Z,96307.32
2019-05-11T05:55:13.676Z,96310.97
2019-05-11T05:56:49.633Z,96313.20
2019-05-11T05:58:25.540Z,96312.19
2019-05-11T06:00:00.839Z,96309.47
2019-05-11T06:01:37.985Z,96309.30
2019-05-11T06:03:16.998Z,96302.66
2019-05-11T06:04:54.498Z,96294.55
2019-05-11T06:06:32.220Z,96299.18
2019-05-11T06:08:10.203Z,96296.30
2019-05-11T06:09:49.605Z,96294.77
2019-05-11T06:11:25.040Z,96298.59
2019-05-11T06:13:08.216Z,96290.96
2019-05-11T06:14:43.926Z,96291.62
2019-05-11T06:16:19.419Z,96290.86
2019-05-11T06:17:54.714Z,96294.50
2019-05-11T06:19:31.061Z,96293.25
2019-05-11T06:21:07.693Z,96290.80
2019-05-11T06:22:43.120Z,96292.92
2019-05-11T06:24:26.257Z,96290.58
2019-05-11T06:26:05.330Z,96297.73
2019-05-11T06:27:43.261Z,96296.30
2019-05-11T06:29:21.610Z,96288.21
2019-05-11T06:30:57.685Z,96282.85
2019-05-11T06:32:37.472Z,96286.96
2019-05-11T06:34:14.245Z,96281.05
2019-05-11T06:35:49.455Z,96290.86
2019-05-11T06:37:24.606Z,96288.92
2019-05-11T06:39:00.461Z,96292.41
2019-05-11T06:40:35.979Z,96296.05
2019-05-11T06:42:11.937Z,96297.41
2019-05-11T06:44:01.178Z,96300.62
2019-05-11T06:45:33.399Z,96300.27
2019-05-11T06:47:09.193Z,96289.06
2019-05-11T06:48:44.879Z,96289.08
2019-05-11T06:50:20.523Z,96280.45
2019-05-11T06:51:57.624Z,96277.00
2019-05-11T06:53:32.762Z,96280.32
2019-05-11T06:55:08.147Z,96277.92
2019-05-11T06:56:43.195Z,96277.16
2019-05-11T06:58:18.910Z,96277.00
2019-05-11T06:59:54.088Z,96276.29
2019-05-11T07:01:29.353Z,96271.23
2019-05-11T07:03:11.146Z,96271.01
2019-05-11T07:04:46.417Z,96273.41
2019-05-11T07:06:28.244Z,96277.27
2019-05-11T07:08:02.593Z,96276.78
2019-05-11T07:09:40.593Z,96278.00
2019-05-11T07:11:16.384Z,96273.45
2019-05-11T07:12:52.003Z,96285.30
2019-05-11T07:14:27.751Z,96286.33
2019-05-11T07:16:04.407Z,96291.94
2019-05-11T07:17:43.143Z,96288.67
2019-05-11T07:19:21.079Z,96288.78
2019-05-11T07:20:56.597Z,96296.72
2019-05-11T07:22:31.679Z,96292.48
2019-05-11T07:24:07.807Z,96291.90
2019-05-11T07:25:43.089Z,96293.56
2019-05-11T07:27:18.921Z,96281.93
2019-05-11T07:28:54.299Z,96277.69
2019-05-11T07:30:37.007Z,96282.58
2019-05-11T07:32:24.800Z,96279.48
2019-05-11T07:33:53.179Z,96284.86
2019-05-11T07:35:28.714Z,96284.13
2019-05-11T07:37:05.023Z,96285.25
2019-05-11T07:38:40.239Z,96282.42
2019-05-11T07:40:18.818Z,96286.24
2019-05-11T07:41:58.298Z,96283.84
2019-05-11T07:43:32.929Z,96289.45
2019-05-11T07:45:09.103Z,96287.15
2019-05-11T07:46:44.973Z,96282.76
2019-05-11T07:48:20.574Z,96291.08
2019-05-11T07:49:57.888Z,96293.95
2019-05-11T07:51:33.712Z,96295.78
2019-05-11T07:53:11.351Z,96302.31
2019-05-11T07:55:08.283Z,96299.10
2019-05-11T07:56:47.910Z,96313.36
2019-05-11T07:58:23.803Z,96308.34
2019-05-11T08:00:07.973Z,96310.03
2019-05-11T08:01:42.482Z,96311.17
2019-05-11T08:03:19.281Z,96311.52
2019-05-11T08:04:54.700Z,96305.45
2019-05-11T08:06:30.308Z,96311.66
2019-05-11T08:08:14.698Z,96314.94
2019-05-11T08:09:59.070Z,96313.80
2019-05-11T08:11:38.824Z,96317.66
2019-05-11T08:13:21.321Z,96314.56
2019-05-11T08:15:08.087Z,96314.55
2019-05-11T08:16:39.385Z,96314.61
2019-05-11T08:18:21.087Z,96323.86
2019-05-11T08:20:00.278Z,96322.16
2019-05-11T08:21:41.405Z,96325.39
2019-05-11T08:23:21.112Z,96331.44
2019-05-11T08:24:58.433Z,96331.76
2019-05-11T08:26:34.817Z,96342.08
2019-05-11T08:28:12.103Z,96337.53
2019-05-11T08:29:48.820Z,96342.81
2019-05-11T08:31:24.483Z,96344.14
2019-05-11T08:33:00.125Z,96353.58
2019-05-11T08:34:35.733Z,96357.72
2019-05-11T08:36:15.247Z,96356.74
2019-05-11T08:37:50.418Z,96356.81
2019-05-11T08:39:25.885Z,96360.39
2019-05-11T08:41:05.106Z,96365.13
2019-05-11T08:42:42.842Z,96367.48
2019-05-11T08:44:18.236Z,96372.08
2019-05-11T08:45:59.647Z,96375.89
2019-05-11T08:47:37.739Z,96370.16
2019-05-11T08:49:18.783Z,96374.42
2019-05-11T08:50:52.638Z,96373.06
2019-05-11T08:52:29.065Z,96378.38
2019-05-11T08:54:04.611Z,96381.22
2019-05-11T08:55:42.637Z,96379.44
2019-05-11T08:57:23.843Z,96377.36
2019-05-11T08:59:04.721Z,96373.87
2019-05-11T09:00:47.687Z,96380.20
2019-05-11T09:02:31.045Z,96384.59
2019-05-11T09:04:12.522Z,96381.13
2019-05-11T09:05:51.459Z,96382.30
2019-05-11T09:07:31.670Z,96378.66
2019-05-11T09:09:13.207Z,96378.73
2019-05-11T09:11:01.501Z,96380.96
2019-05-11T09:12:48.794Z,96382.33
2019-05-11T09:14:28.393Z,96375.33
2019-05-11T09:16:18.643Z,96382.52
2019-05-11T09:18:00.237Z,96388.36
2019-05-11T09:19:47.934Z,96393.44
2019-05-11T09:21:34.172Z,96402.98
2019-05-11T09:23:12.918Z,96400.89
2019-05-11T09:24:52.004Z,96404.58
2019-05-11T09:26:31.474Z,96404.36
2019-05-11T09:28:09.476Z,96417.52
2019-05-11T09:29:44.846Z,96416.48
2019-05-11T09:31:20.214Z,96431.79
2019-05-11T09:32:57.550Z,96431.88
2019-05-11T09:34:32.857Z,96436.37
2019-05-11T09:36:08.765Z,96429.59
2019-05-11T09:37:58.701Z,96440.59
2019-05-11T09:39:37.792Z,96440.41
2019-05-11T09:41:21.620Z,96440.56
2019-05-11T09:43:01.970Z,96455.61
2019-05-11T09:44:45.021Z,96452.42
2019-05-11T09:46:24.816Z,96459.48
2019-05-11T09:48:02.210Z,96458.95
2019-05-11T09:49:46.422Z,96460.45
2019-05-11T09:51:18.398Z,96466.94
2019-05-11T09:53:01.405Z,96469.56
2019-05-11T09:54:39.769Z,96480.92
2019-05-11T09:56:18.769Z,96488.45
2019-05-11T09:57:59.610Z,96487.19
2019-05-11T09:59:40.258Z,96490.43
2019-05-11T10:01:20.983Z,96500.98
2019-05-11T10:03:00.127Z,96499.19
2019-05-11T10:04:38.191Z,96507.60
2019-05-11T10:06:32.111Z,96510.69
2019-05-11T10:08:09.016Z,96505.45
2019-05-11T10:09:47.844Z,96510.66
2019-05-11T10:11:31.887Z,96512.84
2019-05-11T10:13:08.219Z,96508.64
2019-05-11T10:14:49.702Z,96506.52
2019-05-11T10:16:27.889Z,96511.14
2019-05-11T10:18:02.655Z,96523.55
2019-05-11T10:19:39.581Z,96523.13
2019-05-11T10:21:15.271Z,96524.26
2019-05-11T10:22:58.108Z,96512.29
2019-05-11T10:24:38.336Z,96514.88
2019-05-11T10:26:18.744Z,96517.98
2019-05-11T10:27:58.235Z,96512.50
2019-05-11T10:29:38.225Z,96515.15
2019-05-11T10:31:13.673Z,96525.08
2019-05-11T10:32:52.040Z,96523.28
2019-05-11T10:34:58.540Z,96511.71
2019-05-11T10:36:41.470Z,96521.59
2019-05-11T10:38:22.768Z,96520.22
2019-05-11T10:40:04.611Z,96524.37
2019-05-11T10:41:45.201Z,96525.81
2019-05-11T10:43:34.269Z,96527.20
2019-05-11T10:45:12.331Z,96525.41
2019-05-11T10:47:00.431Z,96524.44
2019-05-11T10:48:39.059Z,96525.05
2019-05-11T10:50:18.839Z,96526.57
2019-05-11T10:51:59.175Z,96532.34
2019-05-11T10:53:38.456Z,96531.72
2019-05-11T10:55:28.349Z,96529.06
2019-05-11T10:57:04.281Z,96532.23
2019-05-11T10:58:48.026Z,96535.81
2019-05-11T11:00:25.320Z,96528.64
2019-05-11T11:02:08.155Z,96543.76
2019-05-11T11:04:11.692Z,96539.83
2019-05-11T11:05:53.022Z,96542.28
2019-05-11T11:07:39.357Z,96548.08
2019-05-11T11:09:28.125Z,96550.14
2019-05-11T11:10:59.434Z,96544.89
2019-05-11T11:12:39.054Z,96548.22
2019-05-11T11:14:14.498Z,96546.27
2019-05-11T11:15:57.642Z,96538.34
2019-05-11T11:17:37.985Z,96546.75
2019-05-11T11:19:12.504Z,96552.16
2019-05-11T11:20:49.831Z,96546.47
2019-05-11T11:22:36.946Z,96546.53
2019-05-11T11:24:04.574Z,96539.23
2019-05-11T11:25:42.595Z,96545.33
2019-05-11T11:27:18.527Z,96542.54
2019-05-11T11:28:58.036Z,96543.78
2019-05-11T11:30:34.220Z,96558.77
2019-05-11T11:32:12.653Z,96555.20
2019-05-11T11:33:55.669Z,96556.91
2019-05-11T11:35:31.667Z,96553.28
2019-05-11T11:37:08.337Z,96558.97
2019-05-11T11:38:47.915Z,96562.68
2019-05-11T11:40:28.159Z,96560.16
2019-05-11T11:42:03.694Z,96562.74
2019-05-11T11:43:43.403Z,96574.66
2019-05-11T11:45:21.590Z,96576.50
2019-05-11T11:46:59.322Z,96580.41
2019-05-11T11:48:35.051Z,96589.13
2019-05-11T11:50:10.295Z,96588.06
2019-05-11T11:51:48.291Z,96596.00
2019-05-11T11:53:34.552Z,96597.80
2019-05-11T11:55:11.977Z,96607.00
2019-05-11T11:56:49.462Z,96610.58
2019-05-11T11:58:28.178Z,96615.61
2019-05-11T12:00:05.547Z,96623.96
2019-05-11T12:01:43.624Z,96636.72
2019-05-11T12:03:24.537Z,96641.02
2019-05-11T12:04:59.861Z,96646.09
2019-05-11T12:06:35.056Z,96643.97
2019-05-11T12:08:13.582Z,96654.27
2019-05-11T12:09:50.951Z,96653.71
2019-05-11T12:11:28.084Z,96664.12
2019-05-11T12:13:03.571Z,96662.33
2019-05-11T12:14:42.198Z,96667.78
2019-05-11T12:16:18.217Z,96671.87
2019-05-11T12:17:58.593Z,96670.90
2019-05-11T12:19:39.256Z,96672.70
2019-05-11T12:21:18.594Z,96685.94
2019-05-11T12:23:01.782Z,96681.41
2019-05-11T12:24:38.318Z,96682.61
2019-05-11T12:26:17.909Z,96693.91
2019-05-11T12:27:57.565Z,96686.06
2019-05-11T12:29:35.316Z,96698.07
2019-05-11T12:31:14.710Z,96688.89
2019-05-11T12:32:50.989Z,96698.60
2019-05-11T12:34:43.622Z,96694.27
2019-05-11T12:36:24.261Z,96693.08
2019-05-11T12:38:03.185Z,96695.28
2019-05-11T12:39:41.748Z,96693.08
2019-05-11T12:41:23.650Z,96698.00
2019-05-11T12:43:00.441Z,96694.04
2019-05-11T12:44:38.698Z,96693.70
2019-05-11T12:46:14.799Z,96686.99
2019-05-11T12:47:54.957Z,96687.76
2019-05-11T12:49:32.411Z,96692.61
2019-05-11T12:51:12.319Z,96689.97
2019-05-11T12:52:47.829Z,96687.76
2019-05-11T12:54:28.049Z,96678.64
2019-05-11T12:56:08.242Z,96677.96
2019-05-11T12:57:47.842Z,96678.42
2019-05-11T12:59:30.784Z,96677.33
2019-05-11T13:01:17.993Z,96674.33
2019-05-11T13:02:59.654Z,96685.11
2019-05-11T13:04:38.531Z,96683.68
2019-05-11T13:06:18.811Z,96676.44
2019-05-11T13:07:58.910Z,96685.81
2019-05-11T13:09:34.140Z,96677.61
2019-05-11T13:11:12.957Z,96675.77
2019-05-11T13:12:50.411Z,96676.95
2019-05-11T13:14:28.815Z,96685.91
2019-05-11T13:16:08.552Z,96696.65
2019-05-11T13:17:49.192Z,96702.88
2019-05-11T13:19:28.203Z,96699.12
2019-05-11T13:21:07.715Z,96706.72
2019-05-11T13:22:44.236Z,96707.75
2019-05-11T13:24:21.035Z,96707.45
2019-05-11T13:25:58.342Z,96705.77
2019-05-11T13:27:35.611Z,96712.69
2019-05-11T13:29:13.434Z,96717.11
2019-05-11T13:30:50.479Z,96719.02
2019-05-11T13:32:28.073Z,96727.10
2019-05-11T13:34:02.904Z,96725.80
2019-05-11T13:35:45.575Z,96724.55
2019-05-11T13:37:28.163Z,96727.91
2019-05-11T13:39:03.229Z,96730.58
2019-05-11T13:40:38.928Z,96725.67
2019-05-11T13:42:14.118Z,96720.31
2019-05-11T13:43:54.397Z,96727.41
2019-05-11T13:45:32.879Z,96711.16
2019-05-11T13:47:10.858Z,96716.42
2019-05-11T13:48:47.610Z,96722.39
2019-05-11T13:50:24.078Z,96717.81
2019-05-11T13:51:59.846Z,96734.08
2019-05-11T13:53:37.631Z,96730.02
2019-05-11T13:55:15.609Z,96736.31
2019-05-11T13:56:50.842Z,96737.38
2019-05-11T13:58:27.732Z,96758.67
2019-05-11T14:00:12.908Z,96755.03
2019-05-11T14:01:54.258Z,96762.23
2019-05-11T14:03:34.346Z,96770.99
2019-05-11T14:05:11.361Z,96779.59
2019-05-11T14:06:49.888Z,96789.41
2019-05-11T14:08:34.082Z,96789.91
2019-05-11T14:10:12.787Z,96804.92
2019-05-11T14:11:50.056Z,96796.40
2019-05-11T14:13:28.906Z,96809.70
2019-05-11T14:15:08.654Z,96823.10
2019-05-11T14:16:44.327Z,96827.80
2019-05-11T14:18:22.686Z,96837.25
2019-05-11T14:20:08.982Z,96835.12
2019-05-11T14:21:51.214Z,96838.61
2019-05-11T14:23:31.529Z,96838.77
2019-05-11T14:25:11.329Z,96853.00
2019-05-11T14:26:48.644Z,96856.84
2019-05-11T14:28:29.304Z,96857.14
2019-05-11T14:30:13.401Z,96866.39
2019-05-11T14:31:50.991Z,96871.80
2019-05-11T14:33:29.783Z,96871.53
2019-05-11T14:35:11.339Z,96872.05
2019-05-11T14:36:49.862Z,96867.63
2019-05-11T14:38:35.079Z,96865.66
2019-05-11T14:40:12.420Z,96861.98
2019-05-11T14:41:54.834Z,96865.73
2019-05-11T14:43:38.418Z,96850.56
2019-05-11T14:45:18.671Z,96854.15
2019-05-11T14:47:09.746Z,96847.81
2019-05-11T14:48:48.226Z,96852.92
2019-05-11T14:50:35.144Z,96851.82
2019-05-11T14:52:28.784Z,96869.48
2019-05-11T14:54:35.411Z,96875.28
2019-05-11T14:56:30.898Z,96882.80
2019-05-11T14:58:08.578Z,96896.16
2019-05-11T14:59:44.433Z,96905.92
2019-05-11T15:01:20.176Z,96910.49
2019-05-11T15:02:58.378Z,96926.00
2019-05-11T15:04:37.893Z,96922.94
2019-05-11T15:06:18.982Z,96923.91
2019-05-11T15:08:03.161Z,96926.26
2019-05-11T15:09:40.453Z,96935.16
2019-05-11T15:11:19.229Z,96937.00
2019-05-11T15:12:54.482Z,96939.80
2019-05-11T15:14:30.530Z,96937.19
2019-05-11T15:16:08.238Z,96937.53
2019-05-11T15:20:39.563Z,96939.70
2019-05-11T15:22:18.223Z,96937.45
2019-05-11T15:23:57.957Z,96937.98
2019-05-11T15:25:43.357Z,96934.63
2019-05-11T15:27:18.575Z,96932.17
2019-05-11T15:28:56.038Z,96924.45
2019-05-11T15:30:34.239Z,96913.13
2019-05-11T15:32:17.922Z,96916.89
2019-05-11T15:33:57.592Z,96914.58
2019-05-11T15:35:34.285Z,96917.94
2019-05-11T15:37:09.932Z,96908.31
2019-05-11T15:38:52.282Z,96901.73
2019-05-11T15:40:29.239Z,96906.63
2019-05-11T15:43:12.008Z,96903.55
2019-05-11T15:44:50.134Z,96906.07
2019-05-11T15:46:28.229Z,96915.28
2019-05-11T15:48:08.217Z,96908.11
2019-05-11T15:49:48.485Z,96900.19
2019-05-11T15:51:23.465Z,96897.16
2019-05-11T15:53:02.838Z,96902.20
2019-05-11T15:54:38.650Z,96897.06
2019-05-11T15:56:21.560Z,96894.66
2019-05-11T15:58:00.591Z,96909.73
2019-05-11T15:59:41.327Z,96919.36
2019-05-11T16:01:23.492Z,96907.37
2019-05-11T16:03:05.320Z,96912.72
2019-05-11T16:04:58.241Z,96912.13
2019-05-11T16:06:34.733Z,96913.84
2019-05-11T16:08:28.162Z,96915.78
2019-05-11T16:10:08.843Z,96919.93
2019-05-11T16:11:53.908Z,96913.76
2019-05-11T16:13:29.564Z,96914.59
2019-05-11T16:15:12.954Z,96918.15
2019-05-11T16:16:59.463Z,96925.23
2019-05-11T16:18:30.014Z,96929.24
2019-05-11T16:20:09.079Z,96939.28
2019-05-11T16:21:47.300Z,96940.62
2019-05-11T16:23:32.190Z,96945.64
2019-05-11T16:25:11.169Z,96945.00
2019-05-11T16:26:47.510Z,96946.40
2019-05-11T16:28:27.620Z,96946.50
2019-05-11T16:30:03.695Z,96948.36
2019-05-11T16:31:39.186Z,96948.84
2019-05-11T16:33:15.091Z,96949.92
2019-05-11T16:34:51.194Z,96963.63
2019-05-11T16:36:28.441Z,96966.33
2019-05-11T16:38:10.725Z,96972.70
2019-05-11T16:39:47.382Z,96983.94
2019-05-11T16:41:22.779Z,96968.43
2019-05-11T16:42:59.416Z,96982.23
2019-05-11T16:44:35.177Z,96988.67
2019-05-11T16:46:18.323Z,96983.67
2019-05-11T16:47:55.632Z,96994.25
2019-05-11T16:49:38.561Z,97013.70
2019-05-11T16:51:14.977Z,97008.20
2019-05-11T16:52:58.266Z,97015.38
2019-05-11T16:54:38.785Z,97023.34
2019-05-11T16:56:21.090Z,97024.48
2019-05-11T16:58:00.245Z,97033.62
2019-05-11T16:59:41.220Z,97035.38
2019-05-11T17:01:24.040Z,97035.28
2019-05-11T17:02:59.094Z,97037.77
2019-05-11T17:04:35.711Z,97032.55
2019-05-11T17:06:22.111Z,97026.95
2019-05-11T17:07:58.784Z,97035.11
2019-05-11T17:09:37.956Z,97046.51
2019-05-11T17:11:15.360Z,97039.38
2019-05-11T17:13:09.539Z,97033.16
2019-05-11T17:15:00.399Z,97044.61
2019-05-11T17:16:38.621Z,97038.31
2019-05-11T17:18:19.319Z,97048.27
2019-05-11T17:20:00.643Z,97052.48
2019-05-11T17:21:38.157Z,97063.83
2019-05-11T17:23:21.855Z,97067.31
2019-05-11T17:25:00.428Z,97069.88
2019-05-11T17:26:38.532Z,97071.28
2019-05-11T17:28:14.411Z,97075.38
2019-05-11T17:29:50.085Z,97081.95
2019-05-11T17:31:34.159Z,97072.31
2019-05-11T17:33:12.213Z,97078.62
2019-05-11T17:35:00.426Z,97083.75
2019-05-11T17:36:46.547Z,97087.37
2019-05-11T17:38:28.014Z,97089.19
2019-05-11T17:40:08.995Z,97086.36
2019-05-11T17:41:51.822Z,97089.87
2019-05-11T17:43:28.916Z,97088.25
2019-05-11T17:45:09.610Z,97097.50
2019-05-11T17:46:47.001Z,97089.39
2019-05-11T17:48:28.205Z,97100.59
2019-05-11T17:50:08.138Z,97103.23
2019-05-11T17:51:48.513Z,97107.34
2019-05-11T17:53:28.554Z,97113.83
2019-05-11T17:55:28.742Z,97115.05
2019-05-11T17:57:05.854Z,97110.92
2019-05-11T17:58:41.621Z,97114.27
2019-05-11T18:00:28.118Z,97114.68
2019-05-11T18:02:04.882Z,97111.02
2019-05-11T18:03:41.304Z,97111.09
2019-05-11T18:05:24.583Z,97119.41
2019-05-11T18:07:07.319Z,97123.68
2019-05-11T18:08:42.697Z,97123.77
2019-05-11T18:10:28.428Z,97126.41
2019-05-11T18:12:03.354Z,97125.36
2019-05-11T18:13:41.747Z,97127.27
2019-05-11T18:15:20.562Z,97123.25
2019-05-11T18:16:59.033Z,97129.75
2019-05-11T18:18:41.778Z,97132.45
2019-05-11T18:20:28.467Z,97142.05
2019-05-11T18:22:05.755Z,97142.98
2019-05-11T18:23:49.956Z,97150.52
2019-05-11T18:25:28.760Z,97154.16
2019-05-11T18:27:08.190Z,97157.89
2019-05-11T18:28:48.219Z,97161.29
2019-05-11T18:30:23.963Z,97163.59
2019-05-11T18:31:59.811Z,97170.20
2019-05-11T18:33:48.762Z,97181.72
2019-05-11T18:35:27.914Z,97179.47
2019-05-11T18:37:08.789Z,97179.16
2019-05-11T18:38:56.209Z,97177.72
2019-05-11T18:40:32.710Z,97193.50
2019-05-11T18:42:08.827Z,97193.27
2019-05-11T18:43:48.179Z,97201.55
2019-05-11T18:45:25.079Z,97205.27
2019-05-11T18:47:01.091Z,97212.00
2019-05-11T18:48:38.073Z,97214.52
2019-05-11T18:50:28.253Z,97218.19
2019-05-11T18:51:51.803Z,97223.19
2019-05-11T18:53:28.968Z,97229.83
2019-05-11T18:55:05.156Z,97230.83
2019-05-11T18:56:40.957Z,97239.20
2019-05-11T18:58:18.754Z,97247.97
2019-05-11T18:59:54.287Z,97255.77
2019-05-11T19:01:33.410Z,97255.42
2019-05-11T19:03:10.900Z,97265.28
2019-05-11T19:04:48.749Z,97261.67
2019-05-11T19:06:24.796Z,97266.62
2019-05-11T19:08:02.464Z,97273.07
2019-05-11T19:09:38.702Z,97277.95
2019-05-11T19:11:15.107Z,97283.47
2019-05-11T19:12:50.935Z,97292.01
2019-05-11T19:14:28.243Z,97298.88
2019-05-11T19:16:04.479Z,97302.77
2019-05-11T19:17:42.735Z,97311.15
2019-05-11T19:19:18.419Z,97314.26
2019-05-11T19:20:53.839Z,97323.97
2019-05-11T19:22:30.820Z,97332.28
2019-05-11T19:24:09.298Z,97336.91
2019-05-11T19:25:48.090Z,97350.55
2019-05-11T19:27:26.163Z,97356.36
2019-05-11T19:29:01.489Z,97367.96
2019-05-11T19:30:38.329Z,97376.95
2019-05-11T19:32:21.315Z,97387.28
2019-05-11T19:33:50.866Z,97388.52
2019-05-11T19:35:28.609Z,97387.74
2019-05-11T19:37:03.187Z,97394.35
2019-05-11T19:38:39.066Z,97400.06
2019-05-11T19:40:16.962Z,97407.27
2019-05-11T19:41:53.058Z,97415.39
2019-05-11T19:43:29.687Z,97418.70
2019-05-11T19:45:12.449Z,97425.67
2019-05-11T19:46:47.854Z,97430.44
2019-05-11T19:48:25.248Z,97436.06
2019-05-11T19:50:02.946Z,97442.33
2019-05-11T19:52:02.616Z,97446.75
2019-05-11T19:53:42.581Z,97453.95
2019-05-11T19:55:18.311Z,97458.86
2019-05-11T19:56:58.380Z,97463.71
2019-05-11T19:58:37.899Z,97465.80
2019-05-11T20:00:32.858Z,97472.41
2019-05-11T20:02:08.667Z,97473.32
2019-05-11T20:03:46.783Z,97472.65
2019-05-11T20:05:28.600Z,97475.23
2019-05-11T20:07:09.175Z,97481.85
2019-05-11T20:08:46.542Z,97483.96
2019-05-11T20:10:22.571Z,97490.56
2019-05-11T20:12:00.489Z,97491.92
2019-05-11T20:13:44.234Z,97485.53
2019-05-11T20:15:33.210Z,97486.53
2019-05-11T20:17:13.625Z,97488.77
2019-05-11T20:18:50.865Z,97489.05
2019-05-11T20:20:28.701Z,97489.59
2019-05-11T20:22:09.000Z,97486.81
2019-05-11T20:23:51.970Z,97487.81
2019-05-11T20:25:30.862Z,97494.59
2019-05-11T20:29:41.887Z,97478.76
2019-05-11T20:31:19.348Z,97477.59
2019-05-11T20:33:08.684Z,97463.42
2019-05-11T20:34:44.754Z,97457.00
2019-05-11T20:36:20.289Z,97451.30
2019-05-11T20:38:08.816Z,97448.80
2019-05-11T20:39:48.012Z,97452.27
2019-05-11T20:41:28.010Z,97443.98
2019-05-11T20:43:11.348Z,97439.72
2019-05-11T20:44:53.231Z,97438.09
2019-05-11T20:46:32.806Z,97439.45
2019-05-11T20:48:14.166Z,97444.00
2019-05-11T20:49:58.721Z,97448.08
2019-05-11T20:51:37.028Z,97447.33
2019-05-11T20:53:10.725Z,97454.92
2019-05-11T20:54:47.718Z,97451.11
2019-05-11T20:56:24.660Z,97450.13
2019-05-11T20:58:03.760Z,97454.70
2019-05-11T20:59:41.794Z,97454.22
2019-05-11T21:01:21.496Z,97454.87
2019-05-11T21:03:04.976Z,97455.03
2019-05-11T21:04:49.217Z,97458.38
2019-05-11T21:06:29.410Z,97465.60
2019-05-11T21:08:08.562Z,97471.46
2019-05-11T21:10:08.669Z,97470.69
2019-05-11T21:11:47.951Z,97476.70
2019-05-11T21:13:28.251Z,97475.53
2019-05-11T21:15:17.199Z,97472.47
2019-05-11T21:16:54.083Z,97476.59
2019-05-11T21:18:32.957Z,97481.78
2019-05-11T21:20:10.888Z,97479.19
2019-05-11T21:21:53.406Z,97486.43
2019-05-11T21:23:24.530Z,97491.44
2019-05-11T21:25:02.793Z,97492.60
2019-05-11T21:29:18.854Z,97486.76
2019-05-11T21:30:54.718Z,97491.24
2019-05-11T21:32:30.134Z,97490.32
2019-05-11T21:34:08.443Z,97497.11
2019-05-11T21:36:17.797Z,97498.07
2019-05-11T21:37:58.002Z,97496.91
2019-05-11T21:39:37.781Z,97502.72
2019-05-11T21:41:10.987Z,97505.84
2019-05-11T21:42:47.989Z,97504.47
2019-05-11T21:44:23.430Z,97511.59
2019-05-11T21:46:01.378Z,97512.56
2019-05-11T21:47:38.627Z,97515.64
2019-05-11T21:49:18.368Z,97514.09
2019-05-11T21:50:59.924Z,97512.36
2019-05-11T21:52:42.336Z,97513.14
2019-05-11T21:54:20.599Z,97518.43
2019-05-11T21:56:13.082Z,97525.99
2019-05-11T21:57:50.869Z,97527.78
2019-05-11T21:59:29.077Z,97531.13
2019-05-11T22:01:04.800Z,97527.40
2019-05-11T22:02:43.085Z,97531.70
2019-05-11T22:04:19.175Z,97537.71
2019-05-11T22:05:57.880Z,97535.20
2019-05-11T22:07:31.916Z,97532.30
2019-05-11T22:09:18.615Z,97538.69
2019-05-11T22:10:54.965Z,97541.40
2019-05-11T22:12:31.926Z,97540.27
2019-05-11T22:14:11.768Z,97541.23
2019-05-11T22:16:08.738Z,97540.47
2019-05-11T22:17:50.978Z,97553.28
2019-05-11T22:19:32.455Z,97551.51
2019-05-11T22:21:08.565Z,97542.20
2019-05-11T22:22:44.647Z,97547.44
2019-05-11T22:24:20.726Z,97551.31
2019-05-11T22:25:58.544Z,97553.67
2019-05-11T22:27:32.999Z,97556.58
2019-05-11T22:29:08.313Z,97552.51
2019-05-11T22:30:44.260Z,97549.98
2019-05-11T22:32:19.827Z,97556.57
2019-05-11T22:34:00.861Z,97555.99
2019-05-11T22:35:39.285Z,97560.05
2019-05-11T22:37:27.655Z,97556.98
2019-05-11T22:39:02.627Z,97560.27
2019-05-11T22:40:40.374Z,97565.70
2019-05-11T22:42:15.532Z,97571.89
2019-05-11T22:43:52.310Z,97576.56
2019-05-11T22:45:38.534Z,97586.63
2019-05-11T22:47:14.672Z,97590.69
2019-05-11T22:48:51.599Z,97594.94
2019-05-11T22:50:31.691Z,97607.91
2019-05-11T22:52:08.755Z,97605.20
2019-05-11T22:53:50.279Z,97608.89
2019-05-11T22:55:32.712Z,97611.39
2019-05-11T22:57:11.517Z,97609.08
2019-05-11T22:58:49.976Z,97610.63
2019-05-11T23:00:45.306Z,97617.58
2019-05-11T23:02:25.304Z,97617.20
2019-05-11T23:04:01.484Z,97615.83
2019-05-11T23:05:38.288Z,97622.41
2019-05-11T23:07:14.748Z,97624.73
2019-05-11T23:08:53.963Z,97630.53
2019-05-11T23:10:28.115Z,97627.43
2019-05-11T23:12:05.679Z,97632.28
2019-05-11T23:13:42.159Z,97632.48
2019-05-11T23:15:20.215Z,97623.19